Terminal Aerodrome Forecast
Issued by NWS Topeka, KS

Home | Current Version | Previous Version | Graphics & Text | Print | Product List | Glossary On
Versions: 1 2 3 4 5 6 7 8 9 10 11 12 13 14 15 16 17 18 19 20 21 22 23 24 25
000
FTUS43 KTOP 220355 AAB
TAFTOP
TAF AMD
KTOP 220355Z 2204/2224 25006KT P6SM VCTS BKN070CB
     FM220600 14004KT P6SM SCT120
     FM221200 23008KT 6SM -RA BR OVC015
     FM221600 30015G23KT 4SM -RASN BR OVC012=

USA.gov is the U.S. government's official web portal to all federal, state and local government web resources and services.